Time;durP1;ratioP1;P1;durP2;ratioP2;P2;SDS_P1;SDS_P2;PMS_P1;PMS_P2;Temp;Humidity;BMP_temperature;BMP_pressure;BME280_temperature;BME280_humidity;BME280_pressure;Samples;Min_cycle;Max_cycle;Signal;HPM_P1;HPM_P2
2022/03/15 00:00:27;;;;;;;19.35;12.10;;;;;;;;;;5033690;28;20136;-67
2022/03/15 00:02:57;;;;;;;17.77;11.85;;;;;;;;;;5034556;28;20056;-67
2022/03/15 00:05:31;;;;;;;18.40;11.40;;;;;;;;;;5017363;28;20099;-67
2022/03/15 00:08:01;;;;;;;19.65;12.13;;;;;;;;;;5035129;28;20053;-67
2022/03/15 00:10:33;;;;;;;19.20;12.32;;;;;;;;;;5016998;28;20045;-67
2022/03/15 00:13:01;;;;;;;19.80;12.32;;;;;;;;;;5033499;28;20143;-67
2022/03/15 00:15:32;;;;;;;17.73;11.88;;;;;;;;;;5017332;28;20046;-64
2022/03/15 00:18:01;;;;;;;20.10;12.60;;;;;;;;;;5016952;28;20076;-66
2022/03/15 00:20:37;;;;;;;21.13;12.50;;;;;;;;;;5034921;28;20061;-66
2022/03/15 00:23:06;;;;;;;;;;;;;;;;;;5017395;28;20038;-66
2022/03/15 00:25:36;;;;;;;19.23;12.20;;;;;;;;;;5033214;28;20335;-66
2022/03/15 00:28:10;;;;;;;24.40;13.40;;;;;;;;;;5034915;28;20049;-66
2022/03/15 00:30:39;;;;;;;21.50;12.52;;;;;;;;;;5016719;28;20455;-66
2022/03/15 00:33:13;;;;;;;18.00;12.10;;;;;;;;;;5032908;28;20061;-66
2022/03/15 00:35:51;;;;;;;21.48;13.23;;;;;;;;;;5034432;28;20048;-66
2022/03/15 00:38:22;;;;;;;20.85;13.23;;;;;;;;;;5016705;28;20049;-66
2022/03/15 00:40:53;;;;;;;19.08;13.35;;;;;;;;;;5032798;28;20099;-66
2022/03/15 00:43:25;;;;;;;22.45;13.10;;;;;;;;;;5033251;28;20508;-66
2022/03/15 00:45:55;;;;;;;22.33;13.50;;;;;;;;;;5034465;28;20416;-66
2022/03/15 00:48:23;;;;;;;20.45;13.02;;;;;;;;;;5016840;28;20117;-66
2022/03/15 00:50:55;;;;;;;21.02;13.07;;;;;;;;;;5034278;28;20385;-66
2022/03/15 00:53:27;;;;;;;18.27;12.05;;;;;;;;;;5034023;28;20069;-66
2022/03/15 00:55:54;;;;;;;20.20;12.35;;;;;;;;;;5032651;28;20087;-66
2022/03/15 00:58:27;;;;;;;20.80;12.77;;;;;;;;;;5034313;28;20087;-66
2022/03/15 01:01:00;;;;;;;18.65;12.30;;;;;;;;;;5032743;28;20488;-66
2022/03/15 01:03:29;;;;;;;18.00;12.27;;;;;;;;;;5034098;28;20484;-66
2022/03/15 01:06:02;;;;;;;24.67;13.95;;;;;;;;;;5033965;28;20409;-66
2022/03/15 01:08:31;;;;;;;20.70;12.15;;;;;;;;;;5032714;28;20049;-66
2022/03/15 01:11:04;;;;;;;21.63;12.13;;;;;;;;;;5016260;28;20140;-66
2022/03/15 01:13:38;;;;;;;19.80;11.82;;;;;;;;;;5016255;28;20112;-66
2022/03/15 01:16:06;;;;;;;19.13;12.65;;;;;;;;;;5014858;28;20097;-66
2022/03/15 01:18:44;;;;;;;21.25;12.98;;;;;;;;;;5033822;28;20044;-66
2022/03/15 01:21:39;;;;;;;23.33;12.25;;;;;;;;;;5033962;28;20041;-66
2022/03/15 01:24:32;;;;;;;19.52;12.00;;;;;;;;;;5033276;28;20132;-67
2022/03/15 01:27:04;;;;;;;17.60;11.73;;;;;;;;;;5033677;28;20044;-66
2022/03/15 01:29:41;;;;;;;20.92;12.23;;;;;;;;;;5033585;28;20046;-67
2022/03/15 01:32:08;;;;;;;16.70;11.93;;;;;;;;;;5033279;28;20113;-67
2022/03/15 01:34:42;;;;;;;21.17;12.70;;;;;;;;;;5032112;28;20046;-67
2022/03/15 01:37:10;;;;;;;22.48;12.90;;;;;;;;;;5032821;28;20045;-67
2022/03/15 01:39:38;;;;;;;21.52;12.55;;;;;;;;;;5033939;28;20044;-67
2022/03/15 01:42:09;;;;;;;21.95;13.93;;;;;;;;;;5033409;28;20061;-67
2022/03/15 01:44:45;;;;;;;25.15;13.30;;;;;;;;;;5032061;28;20041;-67
2022/03/15 01:47:13;;;;;;;;;;;;;;;;;;5016050;28;20057;-67
2022/03/15 01:49:47;;;;;;;21.73;13.20;;;;;;;;;;5033379;28;19921;-67
2022/03/15 01:52:15;;;;;;;21.38;13.82;;;;;;;;;;5033241;28;20045;-67
2022/03/15 01:54:44;;;;;;;23.73;14.65;;;;;;;;;;5033114;28;20045;-67
2022/03/15 01:57:20;;;;;;;23.98;13.85;;;;;;;;;;5033984;28;20042;-67
2022/03/15 01:59:48;;;;;;;24.60;14.55;;;;;;;;;;5015588;28;20493;-67
2022/03/15 02:02:41;;;;;;;25.38;13.50;;;;;;;;;;5031382;28;20408;-67
2022/03/15 02:05:13;;;;;;;25.08;14.82;;;;;;;;;;5033178;28;20464;-67
2022/03/15 02:07:47;;;;;;;25.05;14.57;;;;;;;;;;5033460;28;20065;-67
2022/03/15 02:10:16;;;;;;;25.15;14.00;;;;;;;;;;5033107;28;20097;-67
2022/03/15 02:12:45;;;;;;;20.55;13.50;;;;;;;;;;5031572;28;20064;-67
2022/03/15 02:15:16;;;;;;;24.40;13.88;;;;;;;;;;5031982;28;20053;-67
2022/03/15 02:17:49;;;;;;;22.58;14.00;;;;;;;;;;5031495;28;20056;-67
2022/03/15 02:20:18;;;;;;;25.58;13.90;;;;;;;;;;5014763;28;20041;-67
2022/03/15 02:22:46;;;;;;;26.48;14.50;;;;;;;;;;5033503;28;20044;-65
2022/03/15 02:25:18;;;;;;;22.55;14.57;;;;;;;;;;5033204;28;20435;-66
2022/03/15 02:27:51;;;;;;;21.35;13.73;;;;;;;;;;5035864;28;20042;-66
2022/03/15 02:30:21;;;;;;;24.13;14.15;;;;;;;;;;5003051;28;20451;-66
2022/03/15 02:32:49;;;;;;;24.48;14.63;;;;;;;;;;5036524;28;20053;-66
2022/03/15 02:35:42;;;;;;;23.77;13.98;;;;;;;;;;5035515;28;20403;-67
2022/03/15 02:38:12;;;;;;;24.48;14.25;;;;;;;;;;5018875;28;20057;-66
2022/03/15 02:40:43;;;;;;;24.45;13.93;;;;;;;;;;5035366;28;20508;-66
2022/03/15 02:43:13;;;;;;;23.10;14.20;;;;;;;;;;5018689;28;20132;-66
2022/03/15 02:45:44;;;;;;;23.70;14.32;;;;;;;;;;5035263;28;20477;-66
2022/03/15 02:48:15;;;;;;;24.05;14.13;;;;;;;;;;5035373;28;20084;-66
2022/03/15 02:50:43;;;;;;;24.27;14.38;;;;;;;;;;5036403;28;20045;-66
2022/03/15 02:53:37;;;;;;;24.13;14.15;;;;;;;;;;5036401;28;20080;-66
2022/03/15 02:56:12;;;;;;;27.52;15.38;;;;;;;;;;5036620;28;20088;-65
2022/03/15 02:58:41;;;;;;;27.73;15.43;;;;;;;;;;5035884;28;20041;-65
2022/03/15 03:01:12;;;;;;;30.35;16.20;;;;;;;;;;5036497;28;20037;-65
2022/03/15 03:03:42;;;;;;;31.80;16.88;;;;;;;;;;5036167;28;20096;-66
2022/03/15 03:06:10;;;;;;;30.23;17.38;;;;;;;;;;5018166;28;20493;-66
2022/03/15 03:08:40;;;;;;;36.85;17.52;;;;;;;;;;5036157;28;20075;-66
2022/03/15 03:11:09;;;;;;;30.05;15.93;;;;;;;;;;5035960;28;20091;-66
2022/03/15 03:13:44;;;;;;;35.63;18.10;;;;;;;;;;5018200;28;20107;-66
2022/03/15 03:16:13;;;;;;;;;;;;;;;;;;5035068;28;20480;-66
2022/03/15 03:18:41;;;;;;;28.92;15.90;;;;;;;;;;5034510;28;19920;-67
2022/03/15 03:21:25;;;;;;;24.55;14.85;;;;;;;;;;5035812;28;20457;-67
2022/03/15 03:23:57;;;;;;;28.00;15.73;;;;;;;;;;5034246;28;20423;-67
2022/03/15 03:26:37;;;;;;;29.75;16.30;;;;;;;;;;5034832;28;20041;-67
2022/03/15 03:29:10;;;;;;;29.05;15.60;;;;;;;;;;5017831;28;20053;-67
2022/03/15 03:31:39;;;;;;;29.08;15.55;;;;;;;;;;5035393;28;20057;-66
2022/03/15 03:34:32;;;;;;;26.02;14.93;;;;;;;;;;5034508;28;20103;-67
2022/03/15 03:37:04;;;;;;;30.05;14.70;;;;;;;;;;5035652;28;20437;-66
2022/03/15 03:39:33;;;;;;;26.17;14.90;;;;;;;;;;5033385;28;20056;-66
2022/03/15 03:42:05;;;;;;;27.85;14.80;;;;;;;;;;5035303;28;20041;-66
2022/03/15 03:44:34;;;;;;;25.27;14.73;;;;;;;;;;5017624;28;20148;-66
2022/03/15 03:47:03;;;;;;;20.98;13.65;;;;;;;;;;5033973;28;20041;-66
2022/03/15 03:49:37;;;;;;;22.75;13.65;;;;;;;;;;5035404;28;20056;-66
2022/03/15 03:52:12;;;;;;;22.58;14.27;;;;;;;;;;5017495;28;20049;-66
2022/03/15 03:54:41;;;;;;;29.42;16.48;;;;;;;;;;5017423;28;20046;-67
2022/03/15 03:57:11;;;;;;;24.77;15.65;;;;;;;;;;5017277;28;20045;-67
2022/03/15 04:00:04;;;;;;;28.45;16.52;;;;;;;;;;5035934;28;20443;-67
2022/03/15 04:02:41;;;;;;;31.77;16.05;;;;;;;;;;5035233;28;20073;-67
2022/03/15 04:05:09;;;;;;;27.98;16.17;;;;;;;;;;5017381;28;20095;-67
2022/03/15 04:07:42;;;;;;;24.50;15.23;;;;;;;;;;5034650;28;20049;-67
2022/03/15 04:10:20;;;;;;;28.05;15.65;;;;;;;;;;5017269;28;20132;-67
2022/03/15 04:12:54;;;;;;;26.92;15.27;;;;;;;;;;5035058;28;20488;-67
2022/03/15 04:15:24;;;;;;;28.08;15.27;;;;;;;;;;5034932;28;20567;-67
2022/03/15 04:17:53;;;;;;;29.30;15.48;;;;;;;;;;5016985;28;20489;-67
2022/03/15 04:20:47;;;;;;;33.00;15.80;;;;;;;;;;5017011;28;20095;-65
2022/03/15 04:23:15;;;;;;;35.45;16.65;;;;;;;;;;5034730;28;20041;-66
2022/03/15 04:25:44;;;;;;;32.22;17.02;;;;;;;;;;5034635;28;20045;-65
2022/03/15 04:28:14;;;;;;;35.15;16.20;;;;;;;;;;5034669;28;20116;-66
2022/03/15 04:30:42;;;;;;;31.10;16.80;;;;;;;;;;5016436;28;20095;-66
2022/03/15 04:33:12;;;;;;;30.73;17.45;;;;;;;;;;5034113;28;20096;-66
2022/03/15 04:35:42;;;;;;;32.10;16.25;;;;;;;;;;5034298;28;20076;-67
2022/03/15 04:38:10;;;;;;;26.92;15.60;;;;;;;;;;5033090;28;20045;-65
2022/03/15 04:40:43;;;;;;;28.75;15.20;;;;;;;;;;5016756;28;20051;-66
2022/03/15 04:43:36;;;;;;;30.42;16.92;;;;;;;;;;5034344;28;20096;-66
2022/03/15 04:46:06;;;;;;;29.42;16.05;;;;;;;;;;5034476;28;20133;-67
2022/03/15 04:48:37;;;;;;;32.13;16.95;;;;;;;;;;5034075;28;20041;-68
2022/03/15 04:51:08;;;;;;;24.45;15.63;;;;;;;;;;5033545;28;20568;-69
2022/03/15 04:53:39;;;;;;;26.13;14.32;;;;;;;;;;5033818;28;20084;-67
2022/03/15 04:56:08;;;;;;;25.55;14.57;;;;;;;;;;5000186;28;20072;-67
2022/03/15 04:58:41;;;;;;;32.10;18.15;;;;;;;;;;5032684;28;20037;-66
2022/03/15 05:01:16;;;;;;;40.47;23.17;;;;;;;;;;5032894;28;20048;-66
2022/03/15 05:03:45;;;;;;;34.92;20.50;;;;;;;;;;5016310;28;20087;-66
2022/03/15 05:06:19;;;;;;;49.92;28.67;;;;;;;;;;5033769;28;20378;-66
2022/03/15 05:08:50;;;;;;;49.13;29.45;;;;;;;;;;5034030;28;20056;-66
2022/03/15 05:11:19;;;;;;;51.78;29.08;;;;;;;;;;5034095;28;20125;-67
2022/03/15 05:13:49;;;;;;;49.38;28.23;;;;;;;;;;5033389;28;20048;-66
2022/03/15 05:16:23;;;;;;;44.72;27.20;;;;;;;;;;5032543;28;20073;-66
2022/03/15 05:18:59;;;;;;;44.50;26.42;;;;;;;;;;5033503;28;20042;-66
2022/03/15 05:21:27;;;;;;;46.40;25.33;;;;;;;;;;5033539;28;20065;-67
2022/03/15 05:24:05;;;;;;;46.42;26.60;;;;;;;;;;5016025;28;20447;-66
2022/03/15 05:26:36;;;;;;;38.30;22.80;;;;;;;;;;5033058;28;20459;-66
2022/03/15 05:29:05;;;;;;;36.50;21.60;;;;;;;;;;5014215;28;20119;-66
2022/03/15 05:31:35;;;;;;;33.92;20.30;;;;;;;;;;5031255;28;20085;-66
2022/03/15 05:34:03;;;;;;;31.35;20.13;;;;;;;;;;5014019;28;20415;-66
2022/03/15 05:36:30;;;;;;;37.78;19.73;;;;;;;;;;5032751;28;20041;-66
2022/03/15 05:38:58;;;;;;;36.65;18.77;;;;;;;;;;5032676;28;20483;-67
2022/03/15 05:41:26;;;;;;;39.92;19.83;;;;;;;;;;5015018;28;20049;-67
2022/03/15 05:43:57;;;;;;;28.38;18.33;;;;;;;;;;5025675;28;20128;-66
2022/03/15 05:46:27;;;;;;;29.27;17.92;;;;;;;;;;5027465;28;20068;-66
2022/03/15 05:49:02;;;;;;;29.20;18.92;;;;;;;;;;5013711;28;20042;-66
2022/03/15 05:51:31;;;;;;;45.72;20.80;;;;;;;;;;5013398;28;20400;-67
2022/03/15 05:54:00;;;;;;;33.70;18.35;;;;;;;;;;5012148;28;20481;-67
2022/03/15 05:56:29;;;;;;;33.40;20.45;;;;;;;;;;5011909;28;20137;-67
2022/03/15 05:58:58;;;;;;;39.58;22.48;;;;;;;;;;5013785;28;20042;-68
2022/03/15 06:01:29;;;;;;;39.63;22.88;;;;;;;;;;5012999;28;20125;-67
2022/03/15 06:04:05;;;;;;;33.35;19.70;;;;;;;;;;5028500;28;20050;-67
2022/03/15 06:06:35;;;;;;;36.72;22.73;;;;;;;;;;5013996;28;20049;-65
2022/03/15 06:09:02;;;;;;;38.90;21.13;;;;;;;;;;5010420;28;20048;-65
2022/03/15 06:11:32;;;;;;;36.53;20.63;;;;;;;;;;5020842;28;20052;-66
2022/03/15 06:13:59;;;;;;;34.72;19.70;;;;;;;;;;5030902;28;20050;-66
2022/03/15 06:16:27;;;;;;;23.70;16.00;;;;;;;;;;5032422;28;20396;-66
2022/03/15 06:18:55;;;;;;;31.50;16.50;;;;;;;;;;5031914;28;20049;-66
2022/03/15 06:21:23;;;;;;;26.90;17.10;;;;;;;;;;5032895;28;20095;-65
2022/03/15 06:23:53;;;;;;;27.13;17.17;;;;;;;;;;5014966;28;20046;-65
2022/03/15 06:26:37;;;;;;;26.65;20.60;;;;;;;;;;5015117;28;20049;-67
2022/03/15 06:29:07;;;;;;;27.02;19.95;;;;;;;;;;5032836;28;20077;-65
2022/03/15 06:31:37;;;;;;;23.83;18.10;;;;;;;;;;5014747;28;20052;-66
2022/03/15 06:34:09;;;;;;;24.25;17.27;;;;;;;;;;5014896;28;20060;-65
2022/03/15 06:36:38;;;;;;;19.92;16.42;;;;;;;;;;4998843;28;20144;-65
2022/03/15 06:39:10;;;;;;;22.50;15.07;;;;;;;;;;5015014;28;20044;-67
2022/03/15 06:41:43;;;;;;;18.48;13.93;;;;;;;;;;5031303;28;20492;-67
2022/03/15 06:44:11;;;;;;;19.90;13.32;;;;;;;;;;5032402;28;20050;-66
2022/03/15 06:46:44;;;;;;;18.25;13.10;;;;;;;;;;5032686;28;20041;-66
2022/03/15 06:49:37;;;;;;;18.90;14.27;;;;;;;;;;5014859;28;20069;-67
2022/03/15 06:52:10;;;;;;;17.38;11.93;;;;;;;;;;5031287;28;20045;-66
2022/03/15 06:54:38;;;;;;;20.25;11.98;;;;;;;;;;5014965;28;20056;-67
2022/03/15 06:57:10;;;;;;;17.42;11.77;;;;;;;;;;5032571;28;20112;-67
2022/03/15 06:59:39;;;;;;;18.20;13.57;;;;;;;;;;5032035;28;20045;-66
2022/03/15 07:02:07;;;;;;;21.50;14.52;;;;;;;;;;4998355;28;20042;-65
2022/03/15 07:04:35;;;;;;;23.20;16.15;;;;;;;;;;5032054;28;20046;-65
2022/03/15 07:07:04;;;;;;;17.33;13.30;;;;;;;;;;5032436;28;20069;-65
2022/03/15 07:09:31;;;;;;;21.02;14.10;;;;;;;;;;5014208;28;20037;-66
2022/03/15 07:12:00;;;;;;;18.80;13.20;;;;;;;;;;5014653;28;20041;-66
2022/03/15 07:14:29;;;;;;;17.83;14.10;;;;;;;;;;5034287;28;20056;-66
2022/03/15 07:16:56;;;;;;;18.52;13.35;;;;;;;;;;5017955;28;20414;-67
2022/03/15 07:19:27;;;;;;;17.38;13.35;;;;;;;;;;5035433;28;20072;-66
2022/03/15 07:21:56;;;;;;;15.60;12.45;;;;;;;;;;5035656;28;20172;-66
2022/03/15 07:24:24;;;;;;;16.70;12.52;;;;;;;;;;5001650;28;20045;-66
2022/03/15 07:26:54;;;;;;;15.98;13.18;;;;;;;;;;5035201;28;20580;-66
2022/03/15 07:29:23;;;;;;;18.75;13.32;;;;;;;;;;5001831;28;20409;-66
2022/03/15 07:31:52;;;;;;;17.77;14.20;;;;;;;;;;5030393;28;20054;-67
2022/03/15 07:34:20;;;;;;;21.15;17.38;;;;;;;;;;5035237;28;20412;-66
2022/03/15 07:36:48;;;;;;;23.52;20.50;;;;;;;;;;5035434;28;20070;-67
2022/03/15 07:39:16;;;;;;;20.58;15.77;;;;;;;;;;5035583;28;20038;-66
2022/03/15 07:41:46;;;;;;;20.13;14.02;;;;;;;;;;5035582;28;20045;-66
2022/03/15 07:44:14;;;;;;;32.65;21.25;;;;;;;;;;5035713;28;20041;-66
2022/03/15 07:46:48;;;;;;;27.02;16.35;;;;;;;;;;5035910;28;20042;-66
2022/03/15 07:49:21;;;;;;;30.73;20.33;;;;;;;;;;5034600;28;20496;-67
2022/03/15 07:51:53;;;;;;;27.25;16.98;;;;;;;;;;5018110;28;20042;-66
2022/03/15 07:54:22;;;;;;;31.98;17.15;;;;;;;;;;5035022;28;20077;-67
2022/03/15 07:56:53;;;;;;;26.80;15.43;;;;;;;;;;5035213;28;20033;-67
2022/03/15 07:59:25;;;;;;;27.20;16.00;;;;;;;;;;5033698;28;20041;-67
2022/03/15 08:01:53;;;;;;;24.48;14.80;;;;;;;;;;5034885;28;20719;-65
2022/03/15 08:04:21;;;;;;;22.20;13.45;;;;;;;;;;5016595;28;20044;-67
2022/03/15 08:06:50;;;;;;;22.73;12.73;;;;;;;;;;5016014;28;20560;-68
2022/03/15 08:09:19;;;;;;;18.05;11.25;;;;;;;;;;5033347;28;20566;-67
2022/03/15 08:11:50;;;;;;;18.85;10.98;;;;;;;;;;5035045;28;20409;-67
2022/03/15 08:14:20;;;;;;;17.25;10.77;;;;;;;;;;5034409;28;20567;-67
2022/03/15 08:16:49;;;;;;;18.52;11.63;;;;;;;;;;5034967;28;20061;-66
2022/03/15 08:19:23;;;;;;;19.40;11.65;;;;;;;;;;5017128;28;20404;-66
2022/03/15 08:21:52;;;;;;;18.90;11.40;;;;;;;;;;5016932;28;20051;-66
2022/03/15 08:24:45;;;;;;;18.83;11.50;;;;;;;;;;5034173;28;20042;-67
2022/03/15 08:27:12;;;;;;;17.88;11.73;;;;;;;;;;5016769;28;20045;-67
2022/03/15 08:29:42;;;;;;;16.73;11.00;;;;;;;;;;5016670;28;20045;-67
2022/03/15 08:32:10;;;;;;;16.30;10.68;;;;;;;;;;5034502;28;20057;-67
2022/03/15 08:35:04;;;;;;;16.58;10.93;;;;;;;;;;5034315;28;20381;-66
2022/03/15 08:37:37;;;;;;;15.93;10.68;;;;;;;;;;5034300;28;20552;-66
2022/03/15 08:40:10;;;;;;;17.55;10.68;;;;;;;;;;5033119;28;20046;-67
2022/03/15 08:42:38;;;;;;;15.40;10.50;;;;;;;;;;5034600;28;20037;-68
2022/03/15 08:45:06;;;;;;;19.33;11.55;;;;;;;;;;5016591;28;20049;-66
2022/03/15 08:47:38;;;;;;;18.00;10.57;;;;;;;;;;5033341;28;20128;-67
2022/03/15 08:50:30;;;;;;;18.80;11.13;;;;;;;;;;5034437;28;20435;-67
2022/03/15 08:53:23;;;;;;;16.00;10.82;;;;;;;;;;5016540;28;20140;-67
2022/03/15 08:55:55;;;;;;;20.23;11.45;;;;;;;;;;5034506;28;20129;-67
2022/03/15 08:58:23;;;;;;;17.02;10.35;;;;;;;;;;5034330;28;20124;-68
2022/03/15 09:00:53;;;;;;;19.17;10.98;;;;;;;;;;5016365;28;20041;-66
2022/03/15 09:03:27;;;;;;;18.42;11.35;;;;;;;;;;5034348;28;20061;-66
2022/03/15 09:05:55;;;;;;;18.17;11.73;;;;;;;;;;5032866;28;20144;-67
2022/03/15 09:08:24;;;;;;;17.33;11.25;;;;;;;;;;5016351;28;20045;-67
2022/03/15 09:10:56;;;;;;;17.30;10.95;;;;;;;;;;5033911;28;20588;-67
2022/03/15 09:13:25;;;;;;;20.75;13.23;;;;;;;;;;5033989;28;20042;-67
2022/03/15 09:15:55;;;;;;;17.67;12.23;;;;;;;;;;5033775;28;20049;-67
2022/03/15 09:18:48;;;;;;;17.38;11.23;;;;;;;;;;5015961;28;20111;-68
2022/03/15 09:21:41;;;;;;;17.17;11.10;;;;;;;;;;5033489;28;20049;-67
2022/03/15 09:24:14;;;;;;;25.33;15.85;;;;;;;;;;5033573;28;20136;-67
2022/03/15 09:26:47;;;;;;;25.33;15.63;;;;;;;;;;5015883;28;20062;-67
2022/03/15 09:29:15;;;;;;;19.20;12.10;;;;;;;;;;5033623;28;20092;-67
2022/03/15 09:31:43;;;;;;;21.00;12.20;;;;;;;;;;5015846;28;20046;-67
2022/03/15 09:34:12;;;;;;;16.15;12.10;;;;;;;;;;5033463;28;20128;-66
2022/03/15 09:36:44;;;;;;;20.08;12.07;;;;;;;;;;5032592;28;20041;-66
2022/03/15 09:39:15;;;;;;;17.08;10.95;;;;;;;;;;5015666;28;20547;-67
2022/03/15 09:41:47;;;;;;;20.58;11.63;;;;;;;;;;5033110;28;20041;-66
2022/03/15 09:44:19;;;;;;;17.35;11.98;;;;;;;;;;5033347;28;20104;-66
2022/03/15 09:46:51;;;;;;;16.58;10.85;;;;;;;;;;5015616;28;20037;-67
2022/03/15 09:49:26;;;;;;;24.38;17.75;;;;;;;;;;5032102;28;20204;-67
2022/03/15 09:51:57;;;;;;;19.40;10.50;;;;;;;;;;5033531;28;20057;-66
2022/03/15 09:54:30;;;;;;;17.15;10.80;;;;;;;;;;5032001;28;20148;-67
2022/03/15 09:57:02;;;;;;;20.85;10.63;;;;;;;;;;5015555;28;20393;-67
2022/03/15 09:59:37;;;;;;;18.42;11.05;;;;;;;;;;5015111;28;20391;-67
2022/03/15 10:02:30;;;;;;;20.67;10.75;;;;;;;;;;5033470;28;20041;-66
2022/03/15 10:05:03;;;;;;;14.57;9.63;;;;;;;;;;5031970;28;20049;-68
2022/03/15 10:07:34;;;;;;;17.75;10.13;;;;;;;;;;5033301;28;20396;-67
2022/03/15 10:10:06;;;;;;;13.30;9.38;;;;;;;;;;5033146;28;20041;-67
2022/03/15 10:12:39;;;;;;;15.93;10.35;;;;;;;;;;5033217;28;20051;-67
2022/03/15 10:15:26;;;;;;;18.80;10.27;;;;;;;;;;5031967;28;20132;-67
2022/03/15 10:18:04;;;;;;;13.60;9.38;;;;;;;;;;5032694;28;20443;-67
2022/03/15 10:20:42;;;;;;;14.65;9.95;;;;;;;;;;5033208;28;20053;-67
2022/03/15 10:23:10;;;;;;;16.58;11.02;;;;;;;;;;5033209;28;20126;-67
2022/03/15 10:25:53;;;;;;;19.63;11.30;;;;;;;;;;5032678;28;20045;-66
2022/03/15 10:28:20;;;;;;;17.73;10.10;;;;;;;;;;5032876;28;20046;-67
2022/03/15 10:30:50;;;;;;;13.55;9.68;;;;;;;;;;5032708;28;20092;-66
2022/03/15 10:33:22;;;;;;;16.13;10.88;;;;;;;;;;5032721;28;20111;-66
2022/03/15 10:35:50;;;;;;;15.27;11.07;;;;;;;;;;5033131;28;20145;-66
2022/03/15 10:38:21;;;;;;;19.02;10.07;;;;;;;;;;5031431;28;20552;-67
2022/03/15 10:40:54;;;;;;;13.38;9.75;;;;;;;;;;5031937;28;20118;-68
2022/03/15 10:43:24;;;;;;;15.18;9.70;;;;;;;;;;5014970;28;20044;-68
2022/03/15 10:45:57;;;;;;;13.43;9.18;;;;;;;;;;5032810;28;20069;-67
2022/03/15 10:48:35;;;;;;;22.17;10.77;;;;;;;;;;5035548;28;20112;-66
2022/03/15 10:51:06;;;;;;;13.55;9.30;;;;;;;;;;5018771;28;20500;-67
2022/03/15 10:53:43;;;;;;;22.35;9.75;;;;;;;;;;5018877;28;20049;-68
2022/03/15 10:56:24;;;;;;;16.65;12.18;;;;;;;;;;5018586;28;20076;-67
2022/03/15 10:58:55;;;;;;;15.88;10.13;;;;;;;;;;5034939;28;20137;-68
2022/03/15 11:01:25;;;;;;;16.45;10.40;;;;;;;;;;5036356;28;20048;-68
2022/03/15 11:03:59;;;;;;;14.75;9.93;;;;;;;;;;5034896;28;20514;-67
2022/03/15 11:06:52;;;;;;;13.32;9.48;;;;;;;;;;5018478;28;20068;-67
2022/03/15 11:09:57;;;;;;;15.10;10.05;;;;;;;;;;5036181;28;20076;-67
2022/03/15 11:12:24;;;;;;;15.10;9.90;;;;;;;;;;5017700;28;20470;-68
2022/03/15 11:14:59;;;;;;;12.80;9.70;;;;;;;;;;5035848;28;20136;-67
2022/03/15 11:17:32;;;;;;;19.08;11.32;;;;;;;;;;5035772;28;20115;-67
2022/03/15 11:20:02;;;;;;;19.90;12.07;;;;;;;;;;5001965;28;20041;-67
2022/03/15 11:22:31;;;;;;;15.70;10.55;;;;;;;;;;5035928;28;20037;-67
2022/03/15 11:25:17;;;;;;;16.20;10.57;;;;;;;;;;5034325;28;20052;-66
2022/03/15 11:27:52;;;;;;;17.17;10.68;;;;;;;;;;5034533;28;20047;-68
2022/03/15 11:30:22;;;;;;;19.13;10.68;;;;;;;;;;5035868;28;20123;-67
2022/03/15 11:32:52;;;;;;;16.27;11.27;;;;;;;;;;5017864;28;20140;-67
2022/03/15 11:35:22;;;;;;;19.70;11.77;;;;;;;;;;5017681;28;20061;-67
2022/03/15 11:37:56;;;;;;;16.42;10.40;;;;;;;;;;5036072;28;20053;-69
2022/03/15 11:40:24;;;;;;;19.05;10.57;;;;;;;;;;5018794;28;20041;-68
2022/03/15 11:43:03;;;;;;;15.98;10.63;;;;;;;;;;5034330;28;20045;-72
2022/03/15 11:45:56;;;;;;;16.83;10.82;;;;;;;;;;5018048;28;20045;-70
2022/03/15 11:48:44;;;;;;;18.55;9.88;;;;;;;;;;5034396;28;20095;-67
2022/03/15 11:51:16;;;;;;;17.27;11.57;;;;;;;;;;5017210;28;20566;-67
2022/03/15 11:53:54;;;;;;;15.30;10.75;;;;;;;;;;5035152;28;20049;-67
2022/03/15 11:56:42;;;;;;;19.90;10.38;;;;;;;;;;5035667;28;20050;-67
2022/03/15 11:59:10;;;;;;;16.15;10.43;;;;;;;;;;5034650;28;20069;-68
2022/03/15 12:01:47;;;;;;;15.10;10.25;;;;;;;;;;5017304;28;20060;-67
2022/03/15 12:04:17;;;;;;;13.88;9.77;;;;;;;;;;5035215;28;20060;-67
2022/03/15 12:06:54;;;;;;;15.80;10.23;;;;;;;;;;5033755;28;20041;-68
2022/03/15 12:09:31;;;;;;;14.65;10.10;;;;;;;;;;5033798;28;20059;-67
2022/03/15 12:12:30;;;;;;;15.45;10.38;;;;;;;;;;5035184;28;20045;-67
2022/03/15 12:15:12;;;;;;;13.70;9.88;;;;;;;;;;5015122;28;20050;-67
2022/03/15 12:17:40;;;;;;;15.45;9.90;;;;;;;;;;5012425;28;20136;-67
2022/03/15 12:20:14;;;;;;;18.88;10.15;;;;;;;;;;5013894;28;20038;-68
2022/03/15 12:22:47;;;;;;;13.13;9.45;;;;;;;;;;5015148;28;20087;-69
2022/03/15 12:25:19;;;;;;;13.13;9.20;;;;;;;;;;5015003;28;20124;-68
2022/03/15 12:28:01;;;;;;;14.80;9.63;;;;;;;;;;5015018;28;20481;-67
2022/03/15 12:30:51;;;;;;;13.30;9.23;;;;;;;;;;5014966;28;20054;-67
2022/03/15 12:33:28;;;;;;;14.52;8.93;;;;;;;;;;4994173;28;20445;-68
2022/03/15 12:36:09;;;;;;;19.75;10.45;;;;;;;;;;4994893;28;20046;-68
2022/03/15 12:38:40;;;;;;;14.90;10.02;;;;;;;;;;4995352;28;20049;-68
2022/03/15 12:41:11;;;;;;;13.38;9.23;;;;;;;;;;4993975;28;20122;-68
2022/03/15 12:43:40;;;;;;;14.32;9.32;;;;;;;;;;4993833;28;20043;-67
2022/03/15 12:46:12;;;;;;;18.65;9.80;;;;;;;;;;4995110;28;20034;-68
2022/03/15 12:48:44;;;;;;;17.02;10.40;;;;;;;;;;4995182;28;20453;-68
2022/03/15 12:51:19;;;;;;;14.93;9.27;;;;;;;;;;4995171;28;20050;-67
2022/03/15 12:53:49;;;;;;;15.82;9.60;;;;;;;;;;4994681;28;20050;-67
2022/03/15 12:56:23;;;;;;;14.65;9.05;;;;;;;;;;4994888;28;20065;-67
2022/03/15 12:58:52;;;;;;;16.08;9.98;;;;;;;;;;4993748;28;20054;-68
2022/03/15 13:01:20;;;;;;;14.73;8.95;;;;;;;;;;4994738;28;20038;-67
2022/03/15 13:03:48;;;;;;;13.95;9.65;;;;;;;;;;4992928;28;20105;-67
2022/03/15 13:06:21;;;;;;;16.45;10.27;;;;;;;;;;4993105;28;20034;-67
2022/03/15 13:08:55;;;;;;;15.82;10.20;;;;;;;;;;4994013;28;20511;-68
2022/03/15 13:11:30;;;;;;;15.25;9.68;;;;;;;;;;4994727;28;20042;-67
2022/03/15 13:14:00;;;;;;;15.85;9.65;;;;;;;;;;4993163;28;20468;-67
2022/03/15 13:16:33;;;;;;;13.90;9.23;;;;;;;;;;4992951;28;20061;-67
2022/03/15 13:19:03;;;;;;;13.57;9.10;;;;;;;;;;5008561;28;20381;-67
2022/03/15 13:21:33;;;;;;;14.48;9.10;;;;;;;;;;4996083;28;20472;-67
2022/03/15 13:24:05;;;;;;;13.93;9.32;;;;;;;;;;4996417;28;20045;-68
2022/03/15 13:26:39;;;;;;;14.70;9.07;;;;;;;;;;4996129;28;20042;-68
2022/03/15 13:29:08;;;;;;;13.45;9.32;;;;;;;;;;4996185;28;20136;-68
2022/03/15 13:31:36;;;;;;;15.30;9.15;;;;;;;;;;5019059;28;20064;-69
2022/03/15 13:34:09;;;;;;;16.33;10.50;;;;;;;;;;5014665;28;20042;-68
2022/03/15 13:36:42;;;;;;;16.08;9.63;;;;;;;;;;5031472;28;20052;-67
2022/03/15 13:39:15;;;;;;;15.80;9.85;;;;;;;;;;5033193;28;20036;-68
2022/03/15 13:41:53;;;;;;;20.80;9.45;;;;;;;;;;5033624;28;20125;-67
2022/03/15 13:44:21;;;;;;;24.23;10.23;;;;;;;;;;5033300;28;20136;-68
2022/03/15 13:47:03;;;;;;;15.80;9.43;;;;;;;;;;5015704;28;20037;-67
2022/03/15 13:49:31;;;;;;;15.07;9.07;;;;;;;;;;5033242;28;20073;-66
2022/03/15 13:52:06;;;;;;;14.45;9.95;;;;;;;;;;5015335;28;20079;-67
2022/03/15 13:54:40;;;;;;;;;;;;;;;;;;5032477;28;20099;-67
2022/03/15 13:57:10;;;;;;;23.88;9.88;;;;;;;;;;5033418;28;19925;-67
2022/03/15 13:59:41;;;;;;;15.80;10.32;;;;;;;;;;5033259;28;20085;-67
2022/03/15 14:02:34;;;;;;;16.23;9.95;;;;;;;;;;5015523;28;20494;-67
2022/03/15 14:05:28;;;;;;;16.40;10.48;;;;;;;;;;5033203;28;20061;-67
2022/03/15 14:08:05;;;;;;;14.88;9.50;;;;;;;;;;5032979;28;20104;-66
2022/03/15 14:10:33;;;;;;;14.00;9.40;;;;;;;;;;5033206;28;20543;-67
2022/03/15 14:13:06;;;;;;;15.77;9.65;;;;;;;;;;5031764;28;20076;-66
2022/03/15 14:15:37;;;;;;;15.80;9.88;;;;;;;;;;5032823;28;20516;-67
2022/03/15 14:18:05;;;;;;;15.13;9.75;;;;;;;;;;5033141;28;20045;-67
2022/03/15 14:20:41;;;;;;;22.05;10.05;;;;;;;;;;5014865;28;20072;-67
2022/03/15 14:23:17;;;;;;;14.05;9.25;;;;;;;;;;5035472;28;20060;-67
2022/03/15 14:25:50;;;;;;;16.08;9.50;;;;;;;;;;5037291;28;20041;-67
2022/03/15 14:28:23;;;;;;;14.73;9.48;;;;;;;;;;5035420;28;20041;-67
2022/03/15 14:31:03;;;;;;;17.90;9.55;;;;;;;;;;5037293;28;20054;-67
2022/03/15 14:33:35;;;;;;;18.30;9.38;;;;;;;;;;5035684;28;20143;-67
2022/03/15 14:36:04;;;;;;;17.15;9.75;;;;;;;;;;5035742;28;20404;-66
2022/03/15 14:38:38;;;;;;;18.70;8.50;;;;;;;;;;5036751;28;20443;-66
2022/03/15 14:41:12;;;;;;;18.42;9.40;;;;;;;;;;5036664;28;20526;-67
2022/03/15 14:43:42;;;;;;;15.07;8.45;;;;;;;;;;5037710;28;20473;-68
2022/03/15 14:46:11;;;;;;;13.70;9.07;;;;;;;;;;5036501;28;20052;-68
2022/03/15 14:48:49;;;;;;;15.07;9.30;;;;;;;;;;5036808;28;20044;-67
2022/03/15 14:51:17;;;;;;;12.40;8.65;;;;;;;;;;5036721;28;20045;-66
2022/03/15 14:54:09;;;;;;;14.10;8.98;;;;;;;;;;5018310;28;20044;-68